Time;durP1;ratioP1;P1;durP2;ratioP2;P2;SDS_P1;SDS_P2;PMS_P1;PMS_P2;Temp;Humidity;BMP_temperature;BMP_pressure;BME280_temperature;BME280_humidity;BME280_pressure;Samples;Min_cycle;Max_cycle;Signal;HPM_P1;HPM_P2
2023/10/14 00:01:15;;;;;;;17.02;8.38;;;24.90;54.90;;;;;;5033296;28;20512;-68
2023/10/14 00:03:50;;;;;;;13.00;8.82;;;24.90;54.90;;;;;;5031733;28;20397;-67
2023/10/14 00:06:17;;;;;;;16.80;8.48;;;24.90;54.90;;;;;;5031891;28;20025;-67
2023/10/14 00:08:48;;;;;;;15.00;8.23;;;24.90;55.00;;;;;;5033254;28;20034;-67
2023/10/14 00:11:18;;;;;;;15.50;8.20;;;24.80;54.90;;;;;;5031974;28;20036;-67
2023/10/14 00:13:48;;;;;;;13.80;8.85;;;25.00;55.00;;;;;;5033144;28;20052;-67
2023/10/14 00:19:12;;;;;;;15.10;9.90;;;24.90;54.90;;;;;;5033265;28;20041;-67
2023/10/14 00:21:38;;;;;;;15.98;9.75;;;24.80;54.80;;;;;;5031887;28;20075;-67
2023/10/14 00:24:06;;;;;;;13.02;9.60;;;24.90;54.90;;;;;;5031129;28;20061;-67
2023/10/14 00:26:33;;;;;;;15.82;10.15;;;24.90;54.90;;;;;;5031441;28;20045;-67
2023/10/14 00:31:42;;;;;;;15.52;10.00;;;24.80;54.80;;;;;;5031269;28;20473;-66
2023/10/14 00:34:08;;;;;;;18.40;9.95;;;24.80;54.80;;;;;;5032560;28;20123;-67
2023/10/14 00:36:34;;;;;;;18.55;10.00;;;24.70;54.80;;;;;;5031143;28;20064;-67
2023/10/14 00:39:12;;;;;;;21.10;10.32;;;24.80;54.80;;;;;;5032616;28;20445;-66
2023/10/14 00:41:38;;;;;;;25.08;13.52;;;24.80;54.80;;;;;;5030255;28;20115;-65
2023/10/14 00:44:04;;;;;;;17.38;12.18;;;24.70;54.80;;;;;;5032333;28;20550;-67
2023/10/14 00:46:33;;;;;;;19.00;11.35;;;24.70;54.90;;;;;;5031233;28;20038;-67
2023/10/14 00:49:10;;;;;;;20.85;11.50;;;24.70;55.00;;;;;;5032435;28;20401;-67
2023/10/14 00:51:43;;;;;;;19.45;11.70;;;24.70;55.00;;;;;;5032208;28;20048;-67
2023/10/14 00:54:25;;;;;;;19.63;10.95;;;24.70;55.00;;;;;;5032340;28;20121;-66
2023/10/14 00:56:51;;;;;;;18.58;11.05;;;24.80;55.00;;;;;;5030991;28;20102;-67
2023/10/14 00:59:18;;;;;;;19.92;10.18;;;24.70;55.00;;;;;;5032211;28;20545;-67
2023/10/14 01:01:58;;;;;;;18.52;10.13;;;24.90;55.00;;;;;;5032241;28;20041;-68
2023/10/14 01:04:34;;;;;;;22.30;9.02;;;24.70;55.00;;;;;;5051987;28;20025;-66
2023/10/14 01:12:18;;;;;;;14.65;8.52;;;24.70;55.00;;;;;;5068987;28;20109;-66
2023/10/14 01:17:34;;;;;;;13.60;8.55;;;24.70;54.90;;;;;;5009295;28;20057;-66
2023/10/14 01:22:38;;;;;;;13.50;7.18;;;24.70;54.90;;;;;;5009170;28;20049;-67
2023/10/14 01:25:12;;;;;;;13.57;7.93;;;24.80;54.80;;;;;;4993113;28;20598;-67
2023/10/14 01:27:42;;;;;;;11.27;7.20;;;24.60;54.80;;;;;;4994232;28;20098;-67
2023/10/14 01:30:19;;;;;;;16.83;8.38;;;24.70;54.90;;;;;;5012500;28;20053;-67
2023/10/14 01:35:13;;;;;;;12.45;6.35;;;24.70;54.80;;;;;;5029180;28;20084;-67
2023/10/14 01:37:40;;;;;;;13.80;5.90;;;24.70;54.80;;;;;;5028900;28;20541;-67
2023/10/14 01:42:58;;;;;;;11.30;6.88;;;24.60;54.80;;;;;;4976337;28;20168;-67
2023/10/14 01:45:32;;;;;;;9.27;7.55;;;24.70;55.00;;;;;;4970118;28;20121;-67
2023/10/14 01:48:21;;;;;;;14.63;8.25;;;24.60;54.80;;;;;;4953014;28;20522;-67
2023/10/14 01:50:54;;;;;;;17.95;8.45;;;24.70;55.00;;;;;;4966576;28;20047;-68
2023/10/14 01:53:25;;;;;;;12.07;7.78;;;24.60;54.90;;;;;;4950643;28;20058;-68
2023/10/14 01:55:57;;;;;;;12.18;8.13;;;24.70;54.90;;;;;;4969511;28;20399;-67
2023/10/14 01:58:30;;;;;;;15.07;6.28;;;24.70;55.00;;;;;;4954097;28;20054;-67
2023/10/14 02:03:46;;;;;;;8.23;4.72;;;24.80;54.90;;;;;;4954117;28;19909;-67
2023/10/14 02:06:17;;;;;;;7.22;4.75;;;24.70;55.00;;;;;;4938064;28;20047;-67
2023/10/14 02:08:52;;;;;;;12.37;5.87;;;24.70;54.90;;;;;;4986098;28;20149;-68
2023/10/14 02:11:27;;;;;;;10.05;5.57;;;24.80;54.80;;;;;;4985811;28;20296;-67
2023/10/14 02:13:53;;;;;;;11.82;5.97;;;24.60;54.80;;;;;;4953922;28;20132;-67
2023/10/14 02:16:25;;;;;;;9.70;7.13;;;24.70;54.80;;;;;;4969987;28;20039;-67
2023/10/14 02:21:41;;;;;;;12.55;6.50;;;24.70;54.80;;;;;;5028346;28;20045;-67
2023/10/14 02:24:10;;;;;;;9.32;6.40;;;24.80;54.80;;;;;;5028083;28;20057;-67
2023/10/14 02:26:38;;;;;;;12.10;5.35;;;24.60;54.80;;;;;;5028357;28;20056;-67
2023/10/14 02:29:10;;;;;;;12.93;5.13;;;24.70;54.80;;;;;;5028440;28;20065;-68
2023/10/14 02:31:36;;;;;;;14.30;6.13;;;24.60;54.70;;;;;;5012690;28;20052;-67
2023/10/14 02:34:06;;;;;;;10.35;5.65;;;24.50;54.70;;;;;;5028269;28;20045;-67
2023/10/14 02:36:41;;;;;;;8.35;5.70;;;24.60;54.70;;;;;;5028232;28;20045;-67
2023/10/14 02:39:17;;;;;;;7.60;4.97;;;24.50;54.80;;;;;;5028321;28;20056;-68
2023/10/14 02:41:58;;;;;;;12.02;6.13;;;24.60;54.80;;;;;;5028200;28;20117;-67
2023/10/14 02:44:28;;;;;;;10.75;5.00;;;24.60;54.80;;;;;;5028404;28;20080;-67
2023/10/14 02:46:54;;;;;;;9.60;5.18;;;24.60;54.80;;;;;;5028273;28;20046;-68
2023/10/14 02:49:25;;;;;;;12.90;5.95;;;24.60;54.80;;;;;;5028329;28;20509;-67
2023/10/14 02:52:01;;;;;;;8.43;5.72;;;24.60;54.80;;;;;;5027819;28;20484;-67
2023/10/14 02:54:26;;;;;;;8.75;6.15;;;24.50;54.80;;;;;;5028068;28;20511;-68
2023/10/14 02:57:00;;;;;;;14.32;6.47;;;24.50;54.80;;;;;;5028111;28;20454;-66
2023/10/14 02:59:51;;;;;;;8.85;5.15;;;24.70;54.80;;;;;;5044541;28;20045;-68
2023/10/14 03:07:23;;;;;;;7.85;6.00;;;24.60;54.80;;;;;;5071727;28;20078;-67
2023/10/14 03:09:49;;;;;;;11.45;5.30;;;24.70;54.80;;;;;;5054744;28;20049;-68
2023/10/14 03:12:18;;;;;;;10.00;5.43;;;24.60;54.70;;;;;;5070176;28;20478;-68
2023/10/14 03:14:48;;;;;;;11.82;5.78;;;24.70;54.80;;;;;;5031439;28;20076;-67
2023/10/14 03:17:21;;;;;;;16.92;6.47;;;24.60;54.70;;;;;;5031649;28;20137;-67
2023/10/14 03:19:52;;;;;;;;;;;24.60;54.70;;;;;;5032104;28;20456;-68
2023/10/14 03:22:28;;;;;;;13.02;5.50;;;24.60;54.70;;;;;;5014709;28;19921;-68
2023/10/14 03:25:09;;;;;;;10.52;7.18;;;24.50;54.70;;;;;;5031265;28;20049;-68
2023/10/14 03:27:39;;;;;;;8.88;6.60;;;24.50;54.70;;;;;;5031354;28;20520;-66
2023/10/14 03:30:06;;;;;;;12.57;7.80;;;24.60;54.70;;;;;;5031304;28;20065;-68
2023/10/14 03:32:36;;;;;;;13.88;8.48;;;24.60;54.70;;;;;;5031227;28;20413;-67
2023/10/14 03:35:11;;;;;;;15.10;8.52;;;24.50;54.70;;;;;;5031016;28;20053;-68
2023/10/14 03:37:40;;;;;;;13.82;8.57;;;24.50;54.80;;;;;;5046607;28;20052;-67
2023/10/14 03:42:54;;;;;;;13.07;6.15;;;24.50;54.80;;;;;;5044845;28;20029;-67
2023/10/14 03:45:28;;;;;;;7.45;5.20;;;24.60;54.80;;;;;;5024637;28;20486;-67
2023/10/14 03:48:00;;;;;;;10.38;5.57;;;24.60;54.80;;;;;;4991695;28;20042;-67
2023/10/14 03:50:26;;;;;;;10.95;6.75;;;24.60;54.80;;;;;;4991277;28;20044;-67
2023/10/14 03:52:55;;;;;;;15.50;8.05;;;24.60;54.80;;;;;;4991514;28;20133;-68
2023/10/14 03:55:24;;;;;;;14.70;8.50;;;24.50;54.70;;;;;;4991224;28;20045;-68
2023/10/14 03:58:03;;;;;;;13.60;7.65;;;24.60;54.70;;;;;;4975206;28;20126;-66
2023/10/14 04:00:39;;;;;;;6.13;5.45;;;24.60;54.70;;;;;;4991148;28;20157;-68
2023/10/14 04:03:24;;;;;;;13.30;7.75;;;24.50;54.70;;;;;;4991201;28;20124;-68
2023/10/14 04:05:59;;;;;;;19.65;9.75;;;24.50;54.70;;;;;;4991053;28;20067;-67
2023/10/14 04:08:32;;;;;;;19.08;10.73;;;24.50;54.60;;;;;;5030475;28;20037;-67
2023/10/14 04:11:35;;;;;;;21.55;10.40;;;24.60;54.60;;;;;;5030602;28;20511;-67
2023/10/14 04:16:28;;;;;;;18.63;10.63;;;24.50;55.00;;;;;;5049229;28;20045;-67
2023/10/14 04:19:04;;;;;;;20.90;9.73;;;24.60;55.10;;;;;;5040418;28;20049;-67
2023/10/14 04:21:36;;;;;;;20.52;10.30;;;24.90;59.20;;;;;;5030649;28;20044;-67
2023/10/14 04:26:49;;;;;;;20.35;10.52;;;25.40;59.90;;;;;;5010536;28;20069;-67
2023/10/14 04:29:34;;;;;;;22.08;11.13;;;25.40;57.30;;;;;;4994061;28;20049;-67
2023/10/14 04:32:14;;;;;;;18.48;10.52;;;25.30;56.50;;;;;;5010376;28;20053;-67
2023/10/14 04:34:43;;;;;;;20.42;10.65;;;25.30;56.30;;;;;;4994240;28;20033;-67
2023/10/14 04:37:09;;;;;;;18.40;10.10;;;25.10;56.40;;;;;;4994107;28;20475;-67
2023/10/14 04:39:42;;;;;;;15.60;11.20;;;25.00;56.40;;;;;;5010154;28;20113;-67
2023/10/14 04:44:58;;;;;;;18.02;10.80;;;25.00;56.90;;;;;;5010365;28;20050;-66
2023/10/14 04:47:35;;;;;;;18.95;10.35;;;25.00;57.20;;;;;;5010157;28;20030;-67
2023/10/14 04:50:14;;;;;;;14.07;10.30;;;24.90;57.30;;;;;;5010046;28;20077;-67
2023/10/14 04:52:48;;;;;;;15.68;10.27;;;24.90;57.50;;;;;;5010141;28;20038;-68
2023/10/14 04:55:35;;;;;;;15.85;9.57;;;24.80;57.50;;;;;;4993781;28;20077;-71
2023/10/14 05:00:45;;;;;;;7.13;3.88;;;24.70;57.20;;;;;;5010574;28;20037;-70
2023/10/14 05:03:12;;;;;;;4.82;4.18;;;24.80;56.70;;;;;;5015001;28;20055;-70
2023/10/14 05:06:03;;;;;;;6.28;3.65;;;24.80;56.30;;;;;;5032914;28;20040;-69
2023/10/14 05:08:45;;;;;;;9.65;6.35;;;24.80;55.80;;;;;;5032346;28;20112;-70
2023/10/14 05:11:18;;;;;;;10.43;7.90;;;24.90;55.40;;;;;;5014253;28;20493;-67
2023/10/14 05:13:53;;;;;;;14.30;9.52;;;24.80;54.30;;;;;;5032029;28;20493;-67
2023/10/14 05:16:22;;;;;;;13.70;10.23;;;24.80;53.00;;;;;;5035627;28;20025;-64
2023/10/14 05:19:00;;;;;;;11.25;9.48;;;24.90;50.00;;;;;;5051510;28;20041;-64
2023/10/14 05:21:36;;;;;;;16.23;8.77;;;24.90;50.70;;;;;;5051502;28;20422;-64
2023/10/14 05:24:09;;;;;;;10.93;8.05;;;25.00;51.10;;;;;;5051453;28;20497;-63
2023/10/14 05:26:40;;;;;;;12.63;8.25;;;25.00;52.10;;;;;;5051297;28;20041;-64
2023/10/14 05:29:19;;;;;;;12.95;8.75;;;25.10;52.50;;;;;;5050037;28;20033;-64
2023/10/14 05:31:46;;;;;;;9.85;7.25;;;25.10;51.80;;;;;;5050160;28;20040;-66
2023/10/14 05:34:13;;;;;;;11.48;6.65;;;25.10;51.20;;;;;;5051437;28;20102;-67
2023/10/14 05:36:40;;;;;;;9.50;6.55;;;25.00;51.40;;;;;;5048323;28;20035;-66
2023/10/14 05:39:12;;;;;;;17.38;8.75;;;25.10;50.80;;;;;;5052388;28;20067;-67
2023/10/14 05:41:38;;;;;;;9.88;7.30;;;25.10;55.20;;;;;;5051219;28;20041;-69
2023/10/14 05:44:04;;;;;;;12.38;6.88;;;25.00;55.00;;;;;;5050413;28;20040;-69
2023/10/14 05:46:30;;;;;;;13.73;7.95;;;25.20;54.90;;;;;;5051435;28;20037;-69
2023/10/14 05:48:57;;;;;;;12.27;6.70;;;25.10;55.80;;;;;;5051406;28;20037;-68
2023/10/14 05:51:23;;;;;;;11.48;6.07;;;25.20;55.40;;;;;;5051387;28;20080;-69
2023/10/14 05:53:50;;;;;;;7.07;5.35;;;25.20;55.10;;;;;;5049919;28;20482;-67
2023/10/14 05:56:16;;;;;;;6.90;4.90;;;25.20;54.90;;;;;;5051202;28;20025;-69
2023/10/14 05:58:45;;;;;;;5.38;3.67;;;25.10;54.70;;;;;;5051180;28;20447;-69
2023/10/14 06:01:13;;;;;;;7.38;3.88;;;25.10;54.60;;;;;;5049453;28;20065;-69
2023/10/14 06:03:43;;;;;;;9.88;4.28;;;25.20;54.60;;;;;;5047851;28;20492;-70
2023/10/14 06:06:16;;;;;;;4.53;3.60;;;25.20;54.60;;;;;;5050900;28;20078;-69
2023/10/14 06:08:46;;;;;;;4.53;3.97;;;25.30;56.40;;;;;;5048959;28;20384;-69
2023/10/14 06:11:13;;;;;;;9.35;5.43;;;25.30;55.30;;;;;;5050379;28;20068;-70
2023/10/14 06:13:39;;;;;;;11.40;7.10;;;25.30;55.10;;;;;;5050519;28;20017;-69
2023/10/14 06:16:10;;;;;;;5.28;3.80;;;25.30;54.80;;;;;;5050829;28;20119;-71
2023/10/14 06:18:37;;;;;;;5.28;3.75;;;25.30;54.90;;;;;;5045240;28;20033;-71
2023/10/14 06:21:05;;;;;;;4.88;4.03;;;25.30;55.00;;;;;;5049058;28;20037;-69
2023/10/14 06:23:32;;;;;;;9.75;5.68;;;25.40;55.10;;;;;;5050120;28;20037;-68
2023/10/14 06:25:58;;;;;;;9.93;6.68;;;25.30;55.20;;;;;;5049348;28;20108;-68
2023/10/14 06:28:25;;;;;;;16.00;5.55;;;25.40;55.30;;;;;;5050655;28;20045;-69
2023/10/14 06:30:51;;;;;;;11.68;6.53;;;25.30;55.30;;;;;;5050777;28;20176;-69
2023/10/14 06:33:17;;;;;;;9.35;5.70;;;25.40;55.20;;;;;;5050945;28;20125;-69
2023/10/14 06:35:43;;;;;;;7.82;4.55;;;25.30;55.30;;;;;;5028073;28;20176;-68
2023/10/14 06:38:20;;;;;;;5.90;4.40;;;25.30;55.30;;;;;;5028196;28;20045;-69
2023/10/14 06:40:52;;;;;;;9.15;4.88;;;25.40;55.00;;;;;;5014764;28;20049;-69
2023/10/14 06:43:19;;;;;;;12.50;4.90;;;25.30;55.00;;;;;;5015296;28;20171;-68
2023/10/14 06:45:51;;;;;;;12.50;5.90;;;25.30;55.10;;;;;;5049959;28;20069;-70
2023/10/14 06:48:17;;;;;;;12.82;6.15;;;25.30;55.10;;;;;;5049024;28;20049;-70
2023/10/14 06:50:47;;;;;;;9.52;5.90;;;25.40;55.10;;;;;;5048903;28;20079;-69
2023/10/14 06:53:18;;;;;;;10.25;4.75;;;25.30;55.00;;;;;;5051763;28;20123;-69
2023/10/14 06:55:44;;;;;;;12.05;5.70;;;25.50;54.90;;;;;;5051560;28;20558;-69
2023/10/14 06:58:12;;;;;;;9.43;4.40;;;25.40;55.00;;;;;;5034919;28;20037;-68
2023/10/14 07:00:41;;;;;;;9.18;5.82;;;25.40;55.20;;;;;;5034973;28;20052;-68
2023/10/14 07:03:14;;;;;;;8.23;5.63;;;25.40;55.20;;;;;;5051808;28;20480;-69
2023/10/14 07:05:56;;;;;;;10.20;6.47;;;25.40;55.20;;;;;;5051131;28;20186;-69
2023/10/14 07:08:23;;;;;;;;;;;25.40;55.20;;;;;;5012233;28;20065;-69
2023/10/14 07:10:50;;;;;;;4.45;3.15;;;25.40;55.10;;;;;;5011612;28;20329;-70
2023/10/14 07:13:23;;;;;;;6.68;3.90;;;25.30;55.20;;;;;;5011768;28;20125;-69
2023/10/14 07:15:50;;;;;;;9.93;6.68;;;25.40;55.10;;;;;;4995360;28;20566;-70
2023/10/14 07:18:23;;;;;;;9.93;5.53;;;25.30;55.10;;;;;;5011857;28;20050;-69
2023/10/14 07:21:00;;;;;;;8.35;5.85;;;25.30;55.20;;;;;;4994692;28;20064;-69
2023/10/14 07:23:27;;;;;;;13.40;5.22;;;25.30;55.20;;;;;;5011277;28;20050;-68
2023/10/14 07:25:53;;;;;;;6.93;4.50;;;25.30;55.10;;;;;;5011501;28;20069;-70
2023/10/14 07:28:19;;;;;;;5.97;3.67;;;25.20;55.30;;;;;;5011408;28;20081;-67
2023/10/14 07:30:48;;;;;;;5.25;4.00;;;25.30;55.40;;;;;;5011297;28;20481;-68
2023/10/14 07:33:16;;;;;;;9.45;5.15;;;25.30;55.60;;;;;;5014019;28;20529;-68
2023/10/14 07:35:43;;;;;;;7.63;3.42;;;25.30;55.70;;;;;;5031179;28;20580;-68
2023/10/14 07:38:10;;;;;;;9.65;4.68;;;25.30;55.80;;;;;;5014381;28;20059;-67
2023/10/14 07:40:38;;;;;;;10.70;4.55;;;25.50;59.70;;;;;;5072152;28;20033;-68
2023/10/14 07:43:10;;;;;;;7.50;4.60;;;26.10;59.10;;;;;;5073198;28;20035;-69
2023/10/14 07:45:42;;;;;;;7.20;4.50;;;26.30;54.90;;;;;;5073439;28;20093;-68
2023/10/14 07:48:10;;;;;;;11.15;5.43;;;26.20;52.80;;;;;;5073251;28;20285;-67
2023/10/14 07:50:44;;;;;;;8.52;4.63;;;26.10;54.30;;;;;;5072837;28;20032;-68
2023/10/14 07:53:13;;;;;;;4.20;3.17;;;26.00;54.50;;;;;;5071841;28;20123;-67
2023/10/14 07:55:43;;;;;;;15.95;4.13;;;26.00;54.60;;;;;;5073397;28;20060;-65
2023/10/14 07:58:10;;;;;;;7.45;3.85;;;25.90;54.10;;;;;;5052565;28;20496;-68
2023/10/14 08:00:51;;;;;;;7.57;3.70;;;25.80;54.20;;;;;;5052393;28;20052;-67
2023/10/14 08:03:23;;;;;;;8.55;3.88;;;25.70;56.10;;;;;;5052942;28;20061;-66
2023/10/14 08:05:52;;;;;;;5.57;2.97;;;25.80;54.90;;;;;;5053159;28;20036;-67
2023/10/14 08:08:22;;;;;;;8.00;4.20;;;25.70;54.80;;;;;;5053312;28;20033;-67
2023/10/14 08:10:51;;;;;;;5.97;3.38;;;25.80;54.90;;;;;;5053192;28;20179;-68
2023/10/14 08:13:21;;;;;;;5.78;4.38;;;25.80;55.10;;;;;;5052695;28;20048;-67
2023/10/14 08:15:52;;;;;;;5.78;3.72;;;25.90;54.90;;;;;;5051564;28;20086;-67
2023/10/14 08:18:19;;;;;;;4.82;3.42;;;25.80;54.90;;;;;;5053170;28;20029;-67
2023/10/14 08:20:46;;;;;;;7.18;3.90;;;25.70;54.80;;;;;;5051643;28;20044;-68
2023/10/14 08:23:12;;;;;;;7.13;3.45;;;25.80;54.80;;;;;;5052397;28;20053;-67
2023/10/14 08:25:42;;;;;;;4.65;3.20;;;25.60;54.80;;;;;;5052685;28;20476;-68
2023/10/14 08:28:09;;;;;;;6.35;3.55;;;25.70;54.90;;;;;;5052515;28;20281;-67
2023/10/14 08:30:50;;;;;;;8.13;3.53;;;25.70;55.00;;;;;;5051341;28;20036;-68
2023/10/14 08:33:18;;;;;;;10.27;4.00;;;25.80;54.90;;;;;;5052503;28;20508;-68
2023/10/14 08:35:45;;;;;;;7.20;3.33;;;25.60;54.90;;;;;;5052848;28;20025;-67
2023/10/14 08:38:14;;;;;;;5.97;3.83;;;25.70;54.90;;;;;;5052699;28;20037;-68
2023/10/14 08:41:00;;;;;;;6.38;3.13;;;25.80;54.90;;;;;;5051308;28;20487;-69
2023/10/14 08:43:28;;;;;;;8.40;2.60;;;25.60;54.90;;;;;;5050750;28;20041;-69
2023/10/14 08:45:54;;;;;;;4.72;3.10;;;25.70;54.70;;;;;;5050026;28;20040;-68
2023/10/14 08:48:25;;;;;;;11.05;3.65;;;25.70;54.60;;;;;;5052086;28;20029;-66
2023/10/14 08:50:59;;;;;;;11.30;3.97;;;25.70;54.50;;;;;;5052138;28;20532;-65
2023/10/14 08:53:26;;;;;;;6.57;3.13;;;25.60;54.40;;;;;;5051105;28;20060;-65
2023/10/14 08:55:53;;;;;;;5.68;2.40;;;25.60;54.20;;;;;;5051120;28;20044;-67
2023/10/14 08:58:23;;;;;;;3.35;2.85;;;25.80;54.40;;;;;;5052269;28;20041;-66
2023/10/14 09:00:51;;;;;;;6.03;3.60;;;25.50;54.40;;;;;;5052221;28;20029;-67
2023/10/14 09:03:17;;;;;;;5.45;3.88;;;25.60;54.80;;;;;;5051002;28;20040;-66
2023/10/14 09:05:44;;;;;;;8.32;3.40;;;25.70;54.50;;;;;;5051776;28;20076;-68
2023/10/14 09:08:14;;;;;;;20.05;13.05;;;25.70;54.20;;;;;;5052013;28;20386;-66
2023/10/14 09:10:40;;;;;;;28.55;8.82;;;25.80;53.20;;;;;;5051827;28;20043;-67
2023/10/14 09:13:09;;;;;;;45.90;10.73;;;25.90;53.40;;;;;;5051877;28;20021;-67
2023/10/14 09:15:39;;;;;;;45.63;12.80;;;26.00;54.70;;;;;;5051822;28;20044;-67
2023/10/14 09:18:13;;;;;;;29.02;8.35;;;26.00;55.50;;;;;;5051722;28;20072;-67
2023/10/14 09:20:40;;;;;;;29.98;8.48;;;26.10;55.70;;;;;;5050432;28;20108;-68
2023/10/14 09:25:57;;;;;;;21.30;8.00;;;26.20;55.80;;;;;;5031543;28;20045;-67
2023/10/14 09:28:26;;;;;;;21.50;7.10;;;26.00;55.70;;;;;;5032719;28;20434;-66
2023/10/14 09:30:54;;;;;;;19.15;7.13;;;26.00;56.00;;;;;;5031494;28;20048;-65
2023/10/14 09:33:31;;;;;;;18.35;6.88;;;26.10;56.00;;;;;;5039150;28;20138;-66
2023/10/14 09:36:02;;;;;;;17.05;6.13;;;26.00;58.30;;;;;;5050151;28;20059;-68
2023/10/14 09:38:32;;;;;;;11.77;4.60;;;26.00;58.10;;;;;;5051578;28;20061;-66
2023/10/14 09:41:10;;;;;;;10.70;4.72;;;26.20;56.80;;;;;;5051371;28;20045;-66
2023/10/14 09:43:42;;;;;;;10.48;3.67;;;26.10;55.90;;;;;;5051046;28;20029;-66
2023/10/14 09:46:11;;;;;;;;;;;26.00;55.40;;;;;;5052122;28;20040;-65
2023/10/14 09:48:38;;;;;;;11.85;5.28;;;26.10;55.10;;;;;;5051151;28;19923;-67
2023/10/14 09:51:06;;;;;;;5.40;3.50;;;26.00;56.50;;;;;;5051684;28;20033;-72
2023/10/14 09:53:34;;;;;;;7.90;3.60;;;26.40;56.10;;;;;;5051494;28;20033;-70
2023/10/14 09:56:07;;;;;;;17.85;4.25;;;26.30;55.80;;;;;;5049944;28;20102;-69
2023/10/14 09:58:41;;;;;;;8.85;3.58;;;26.50;57.50;;;;;;5050985;28;20472;-69
2023/10/14 10:01:12;;;;;;;4.70;3.50;;;26.60;59.00;;;;;;5050997;28;20032;-71
2023/10/14 10:03:48;;;;;;;4.03;2.80;;;26.50;55.10;;;;;;5051285;28;20029;-72
2023/10/14 10:06:46;;;;;;;6.47;3.42;;;26.50;54.20;;;;;;5050799;28;20048;-72
2023/10/14 10:09:49;;;;;;;5.03;3.20;;;26.50;53.80;;;;;;5051163;28;20033;-72
2023/10/14 10:12:17;;;;;;;4.63;3.47;;;26.40;53.30;;;;;;5051189;28;20139;-71
2023/10/14 10:14:45;;;;;;;4.50;2.72;;;26.30;52.90;;;;;;5050677;28;20090;-71
2023/10/14 10:17:12;;;;;;;5.45;2.72;;;26.40;52.60;;;;;;5049641;28;20036;-71
2023/10/14 10:20:16;;;;;;;11.80;3.20;;;26.40;52.50;;;;;;5050646;28;20036;-68
2023/10/14 10:22:50;;;;;;;7.38;3.00;;;26.20;52.50;;;;;;5027769;28;20053;-67
2023/10/14 10:25:53;;;;;;;3.95;2.05;;;26.50;54.20;;;;;;5011782;28;20064;-68
2023/10/14 10:28:28;;;;;;;;;;;26.80;51.80;;;;;;5028547;28;20087;-69
2023/10/14 10:30:55;;;;;;;6.07;2.75;;;26.80;54.40;;;;;;5015477;28;19921;-68
2023/10/14 10:33:24;;;;;;;4.70;3.58;;;26.60;51.70;;;;;;5007853;28;20049;-66
2023/10/14 10:36:03;;;;;;;5.18;3.00;;;26.60;51.10;;;;;;5010217;28;20164;-68
2023/10/14 10:38:37;;;;;;;6.28;2.70;;;26.50;50.80;;;;;;5027843;28;20049;-70
2023/10/14 10:41:24;;;;;;;5.43;3.67;;;26.60;50.80;;;;;;5028149;28;20038;-69
2023/10/14 10:44:11;;;;;;;4.57;2.60;;;26.50;51.90;;;;;;4933651;29;20039;-67
2023/10/14 10:46:48;;;;;;;9.15;3.40;;;26.60;52.20;;;;;;4932001;29;20138;-68
2023/10/14 10:49:16;;;;;;;9.90;4.90;;;26.90;53.00;;;;;;4949331;29;20106;-68
2023/10/14 10:52:06;;;;;;;7.07;3.75;;;27.10;54.70;;;;;;4955070;28;20059;-68
2023/10/14 10:54:37;;;;;;;4.72;2.72;;;27.30;54.20;;;;;;4969265;28;20039;-67
2023/10/14 10:57:03;;;;;;;6.82;2.63;;;27.30;56.50;;;;;;4969878;28;20038;-67
2023/10/14 10:59:37;;;;;;;9.40;3.72;;;27.40;53.90;;;;;;4992367;28;20088;-67
2023/10/14 11:02:11;;;;;;;8.07;3.17;;;27.30;54.30;;;;;;4969243;28;20126;-67
2023/10/14 11:04:48;;;;;;;7.68;3.33;;;27.30;54.50;;;;;;4969458;28;20103;-68
2023/10/14 11:07:14;;;;;;;8.32;3.63;;;27.30;53.80;;;;;;4953501;28;20134;-68
2023/10/14 11:09:41;;;;;;;6.70;3.15;;;27.10;54.20;;;;;;4963355;28;20418;-67
2023/10/14 11:12:11;;;;;;;11.98;3.65;;;27.10;54.40;;;;;;4969259;28;20154;-71
2023/10/14 11:14:38;;;;;;;13.80;3.67;;;26.90;52.80;;;;;;4977076;28;20130;-69
2023/10/14 11:17:05;;;;;;;6.55;3.03;;;26.90;51.90;;;;;;4988397;28;20061;-69
2023/10/14 11:19:32;;;;;;;5.57;2.97;;;27.00;51.60;;;;;;5007023;28;20117;-68
2023/10/14 11:22:00;;;;;;;4.95;3.00;;;27.00;51.20;;;;;;5007048;28;20502;-67
2023/10/14 11:24:35;;;;;;;5.05;2.55;;;26.90;50.40;;;;;;5005445;28;20042;-68
2023/10/14 11:27:06;;;;;;;7.63;3.47;;;26.90;50.30;;;;;;4993647;28;20034;-68
2023/10/14 11:29:35;;;;;;;4.88;2.97;;;26.80;50.30;;;;;;4975869;28;20104;-69
2023/10/14 11:32:02;;;;;;;5.75;2.75;;;26.80;50.30;;;;;;4978839;28;20046;-68
2023/10/14 11:34:41;;;;;;;3.05;2.53;;;26.90;50.20;;;;;;5046313;28;20024;-69
2023/10/14 11:37:15;;;;;;;6.72;3.05;;;26.70;50.20;;;;;;5086983;28;20063;-69
2023/10/14 11:39:53;;;;;;;4.32;2.83;;;26.80;50.30;;;;;;5050992;28;20045;-69
2023/10/14 11:42:22;;;;;;;7.22;2.83;;;26.60;50.30;;;;;;5051237;28;20079;-69
2023/10/14 11:44:51;;;;;;;7.22;2.72;;;26.90;50.30;;;;;;5051109;28;20053;-69
2023/10/14 11:47:20;;;;;;;10.52;3.97;;;26.80;50.40;;;;;;5050675;28;20047;-68
2023/10/14 11:49:50;;;;;;;3.80;2.45;;;26.70;50.40;;;;;;5050726;28;20049;-69
2023/10/14 11:52:21;;;;;;;4.82;2.72;;;26.70;50.50;;;;;;5050722;28;20094;-67
2023/10/14 11:54:48;;;;;;;6.65;3.03;;;26.70;50.50;;;;;;5034109;28;20053;-67
2023/10/14 11:57:14;;;;;;;6.60;2.90;;;26.60;50.60;;;;;;5050883;28;20049;-68
2023/10/14 11:59:40;;;;;;;3.13;2.58;;;26.60;50.70;;;;;;5050895;28;20106;-69
2023/10/14 12:02:06;;;;;;;5.53;2.80;;;26.60;50.80;;;;;;5050676;28;20041;-69
2023/10/14 12:04:32;;;;;;;5.05;2.50;;;26.60;50.70;;;;;;5033769;28;20049;-69
2023/10/14 12:06:58;;;;;;;8.45;2.90;;;26.70;50.80;;;;;;5050034;28;20029;-69
2023/10/14 12:09:24;;;;;;;4.50;2.63;;;26.50;50.80;;;;;;5030614;28;20041;-69
2023/10/14 12:11:50;;;;;;;6.93;2.63;;;26.50;50.80;;;;;;5051155;28;20454;-69
2023/10/14 12:14:16;;;;;;;15.50;1.48;;;26.60;50.80;;;;;;5035083;28;20037;-69
2023/10/14 12:16:42;;;;;;;5.25;3.00;;;26.50;50.90;;;;;;5052952;28;20039;-69
2023/10/14 12:19:11;;;;;;;5.25;3.47;;;26.50;50.90;;;;;;5051506;28;20131;-69
2023/10/14 12:21:38;;;;;;;5.32;3.15;;;26.60;50.90;;;;;;5052824;28;20033;-69
2023/10/14 12:24:09;;;;;;;6.82;2.85;;;26.50;50.90;;;;;;5052942;28;20496;-69
2023/10/14 12:26:42;;;;;;;5.85;2.45;;;26.50;50.90;;;;;;5053007;28;20309;-68
2023/10/14 12:29:09;;;;;;;;;;;26.40;51.10;;;;;;5053153;28;20120;-68
2023/10/14 12:31:38;;;;;;;7.45;3.03;;;26.40;51.20;;;;;;5052810;28;19948;-68
2023/10/14 12:34:10;;;;;;;3.00;2.17;;;26.40;51.20;;;;;;5051033;28;20033;-68
2023/10/14 12:36:45;;;;;;;6.32;2.83;;;26.30;51.20;;;;;;5051687;28;20059;-68
2023/10/14 12:39:33;;;;;;;3.80;2.47;;;26.40;51.30;;;;;;5049592;28;20065;-67
2023/10/14 12:42:03;;;;;;;6.13;2.92;;;26.30;51.40;;;;;;5033558;28;20044;-67
2023/10/14 12:44:29;;;;;;;4.68;2.83;;;26.40;51.40;;;;;;5017874;28;20091;-68
2023/10/14 12:46:55;;;;;;;6.18;3.05;;;26.20;51.40;;;;;;5050057;28;20080;-68
2023/10/14 12:49:22;;;;;;;4.75;2.83;;;26.40;51.50;;;;;;5049840;28;20110;-67
2023/10/14 12:51:48;;;;;;;5.10;2.40;;;26.30;51.50;;;;;;5050048;28;20083;-67
2023/10/14 12:54:17;;;;;;;3.03;2.50;;;26.30;51.50;;;;;;5033304;28;20032;-67
2023/10/14 12:56:44;;;;;;;8.88;3.60;;;26.40;51.50;;;;;;5050104;28;20528;-66
2023/10/14 12:59:13;;;;;;;7.80;2.95;;;26.20;52.70;;;;;;5049951;28;20044;-65
2023/10/14 13:01:46;;;;;;;8.10;3.55;;;26.10;53.80;;;;;;5049818;28;20033;-72
2023/10/14 13:04:16;;;;;;;8.77;3.00;;;26.20;53.10;;;;;;5044313;28;20451;-73
2023/10/14 13:06:44;;;;;;;7.57;2.92;;;26.20;52.70;;;;;;5052042;28;20041;-71
2023/10/14 13:09:12;;;;;;;3.97;2.63;;;26.20;52.50;;;;;;5051939;28;20124;-71
2023/10/14 13:11:43;;;;;;;7.10;3.10;;;26.30;52.50;;;;;;5050419;28;20487;-70
2023/10/14 13:14:10;;;;;;;6.78;2.65;;;26.20;52.50;;;;;;5050550;28;20430;-76
2023/10/14 13:16:37;;;;;;;5.13;2.95;;;26.20;52.50;;;;;;5041243;28;20030;-73
2023/10/14 13:19:04;;;;;;;3.72;2.90;;;26.20;52.50;;;;;;5014544;28;20034;-71
2023/10/14 13:21:30;;;;;;;5.57;3.33;;;26.20;52.40;;;;;;5031911;28;20139;-74
2023/10/14 13:23:56;;;;;;;6.22;2.85;;;26.40;52.30;;;;;;5031573;28;20057;-74
2023/10/14 13:26:23;;;;;;;3.53;2.50;;;26.20;52.00;;;;;;5012696;28;20049;-73
2023/10/14 13:28:52;;;;;;;5.03;3.33;;;26.20;51.90;;;;;;5029542;28;20528;-74
2023/10/14 13:31:20;;;;;;;6.40;3.08;;;26.20;51.80;;;;;;5029567;28;20054;-74
2023/10/14 13:33:47;;;;;;;7.53;2.78;;;26.10;51.70;;;;;;5036665;28;20028;-75
2023/10/14 13:36:14;;;;;;;6.88;3.78;;;26.20;51.70;;;;;;5049015;28;20052;-75
2023/10/14 13:38:40;;;;;;;6.18;3.10;;;26.10;51.70;;;;;;5032318;28;20106;-73
2023/10/14 13:41:13;;;;;;;7.32;3.08;;;26.10;51.60;;;;;;5049099;28;20044;-73
2023/10/14 13:43:39;;;;;;;6.13;3.38;;;26.00;51.60;;;;;;5048555;28;20041;-74
2023/10/14 13:46:06;;;;;;;7.97;3.35;;;26.00;51.60;;;;;;5049109;28;20587;-74
2023/10/14 13:48:33;;;;;;;7.40;3.50;;;25.90;51.10;;;;;;5048556;28;20132;-74
2023/10/14 13:51:01;;;;;;;3.95;2.58;;;26.00;51.60;;;;;;5048753;28;20059;-75